createdAt,value
2023-02-14T00:00:39.270Z,5.94
2023-02-14T00:03:08.601Z,5.90
2023-02-14T00:05:38.262Z,5.90
2023-02-14T00:08:04.849Z,5.65
2023-02-14T00:10:35.188Z,5.74
2023-02-14T00:13:02.068Z,6.04
2023-02-14T00:15:35.964Z,5.89
2023-02-14T00:18:04.581Z,5.99
2023-02-14T00:20:31.148Z,5.84
2023-02-14T00:22:57.846Z,5.95
2023-02-14T00:25:24.414Z,5.76
2023-02-14T00:27:51.367Z,5.61
2023-02-14T00:30:20.705Z,5.68
2023-02-14T00:32:51.787Z,5.51
2023-02-14T00:35:23.686Z,5.60
2023-02-14T00:37:56.783Z,5.72
2023-02-14T00:40:23.566Z,5.71
2023-02-14T00:42:51.936Z,5.37
2023-02-14T00:45:20.500Z,5.43
2023-02-14T00:47:49.572Z,5.14
2023-02-14T00:50:19.818Z,4.94
2023-02-14T00:52:46.433Z,5.27
2023-02-14T00:55:13.080Z,5.37
2023-02-14T00:57:45.599Z,5.40
2023-02-14T01:00:13.777Z,5.46
2023-02-14T01:02:43.499Z,5.35
2023-02-14T01:05:10.262Z,5.21
2023-02-14T01:07:36.994Z,5.39
2023-02-14T01:10:05.010Z,5.38
2023-02-14T01:15:12.077Z,5.56
2023-02-14T01:17:38.738Z,5.55
2023-02-14T01:20:06.335Z,5.22
2023-02-14T01:22:42.533Z,5.46
2023-02-14T01:25:09.257Z,5.45
2023-02-14T01:27:35.980Z,5.53
2023-02-14T01:30:06.702Z,5.55
2023-02-14T01:32:34.108Z,5.62
2023-02-14T01:35:04.844Z,5.61
2023-02-14T01:37:34.769Z,5.57
2023-02-14T01:40:02.452Z,5.50
2023-02-14T01:42:36.940Z,5.32
2023-02-14T01:45:19.579Z,5.72
2023-02-14T01:47:51.864Z,5.50
2023-02-14T01:50:30.265Z,4.97
2023-02-14T01:53:06.450Z,5.30
2023-02-14T01:55:39.885Z,5.47
2023-02-14T01:58:17.748Z,5.44
2023-02-14T02:00:59.998Z,5.44
2023-02-14T02:03:57.885Z,5.45
2023-02-14T02:06:40.335Z,4.77
2023-02-14T02:09:31.297Z,5.36
2023-02-14T02:12:04.177Z,5.15
2023-02-14T02:14:31.963Z,5.16
2023-02-14T02:17:20.635Z,5.25
2023-02-14T02:20:21.750Z,5.41
2023-02-14T02:23:21.988Z,5.35
2023-02-14T02:26:19.201Z,5.31
2023-02-14T02:28:48.601Z,5.28
2023-02-14T02:31:49.937Z,5.24
2023-02-14T02:34:44.018Z,5.20
2023-02-14T02:37:19.494Z,5.18
2023-02-14T02:40:00.087Z,5.17
2023-02-14T02:42:53.481Z,5.14
2023-02-14T02:45:32.608Z,4.71
2023-02-14T02:48:11.935Z,5.08
2023-02-14T02:51:13.245Z,4.79
2023-02-14T02:54:04.598Z,5.01
2023-02-14T02:56:48.877Z,5.00
2023-02-14T02:59:32.020Z,4.36
2023-02-14T03:02:12.838Z,5.14
2023-02-14T03:04:54.083Z,5.12
2023-02-14T03:07:37.110Z,4.65
2023-02-14T03:10:24.301Z,5.01
2023-02-14T03:13:15.951Z,4.63
2023-02-14T03:16:25.920Z,5.07
2023-02-14T03:19:40.186Z,5.06
2023-02-14T03:22:43.569Z,5.10
2023-02-14T03:25:38.294Z,5.07
2023-02-14T03:28:15.875Z,4.82
2023-02-14T03:31:06.980Z,5.05
2023-02-14T03:33:39.483Z,5.11
2023-02-14T03:36:19.498Z,5.10
2023-02-14T03:39:06.121Z,5.09
2023-02-14T03:41:42.508Z,5.06
2023-02-14T03:44:12.506Z,4.97
2023-02-14T03:47:11.652Z,4.99
2023-02-14T03:49:49.020Z,4.88
2023-02-14T03:52:24.669Z,4.81
2023-02-14T03:54:55.765Z,4.91
2023-02-14T03:57:44.692Z,4.71
2023-02-14T04:00:17.415Z,5.10
2023-02-14T04:03:07.160Z,4.87
2023-02-14T04:05:49.901Z,5.04
2023-02-14T04:08:25.989Z,4.92
2023-02-14T04:10:53.277Z,4.93
2023-02-14T04:13:25.277Z,4.67
2023-02-14T04:15:52.009Z,4.69
2023-02-14T04:18:37.247Z,4.81
2023-02-14T04:21:04.057Z,4.72
2023-02-14T04:23:35.072Z,4.74
2023-02-14T04:26:09.254Z,4.27
2023-02-14T04:28:35.954Z,4.78
2023-02-14T04:31:05.124Z,4.75
2023-02-14T04:33:32.642Z,4.85
2023-02-14T04:36:08.326Z,4.86
2023-02-14T04:38:41.041Z,4.91
2023-02-14T04:41:07.821Z,4.76
2023-02-14T04:43:40.314Z,4.87
2023-02-14T04:46:18.543Z,4.86
2023-02-14T04:48:49.731Z,4.88
2023-02-14T04:51:18.943Z,4.82
2023-02-14T04:53:47.967Z,4.67
2023-02-14T04:56:39.586Z,4.81
2023-02-14T04:59:10.410Z,4.74
2023-02-14T05:01:45.046Z,4.74
2023-02-14T05:04:11.804Z,4.80
2023-02-14T05:06:45.583Z,4.87
2023-02-14T05:09:15.007Z,4.81
2023-02-14T05:11:49.060Z,4.72
2023-02-14T05:14:26.143Z,4.60
2023-02-14T05:16:56.882Z,4.76
2023-02-14T05:19:30.189Z,4.66
2023-02-14T05:22:03.982Z,4.77
2023-02-14T05:24:34.770Z,4.85
2023-02-14T05:27:07.127Z,4.79
2023-02-14T05:29:37.284Z,4.62
2023-02-14T05:32:05.669Z,4.59
2023-02-14T05:34:34.061Z,4.79
2023-02-14T05:37:02.778Z,4.77
2023-02-14T05:39:37.382Z,4.54
2023-02-14T05:42:04.272Z,4.78
2023-02-14T05:44:31.290Z,4.39
2023-02-14T05:46:58.192Z,4.64
2023-02-14T05:49:24.760Z,4.85
2023-02-14T05:51:55.785Z,4.87
2023-02-14T05:54:24.738Z,4.84
2023-02-14T05:56:51.362Z,4.83
2023-02-14T05:59:17.945Z,4.84
2023-02-14T06:01:44.580Z,4.50
2023-02-14T06:04:11.309Z,4.77
2023-02-14T06:06:41.726Z,4.92
2023-02-14T06:09:36.756Z,4.55
2023-02-14T06:12:04.857Z,4.97
2023-02-14T06:14:42.883Z,4.91
2023-02-14T06:17:14.648Z,4.85
2023-02-14T06:19:41.792Z,4.91
2023-02-14T06:22:22.832Z,4.97
2023-02-14T06:24:52.617Z,5.04
2023-02-14T06:27:22.330Z,5.08
2023-02-14T06:29:49.786Z,4.94
2023-02-14T06:32:27.141Z,5.02
2023-02-14T06:34:56.254Z,4.84
2023-02-14T06:37:29.092Z,4.71
2023-02-14T06:39:56.126Z,4.72
2023-02-14T06:42:22.684Z,5.03
2023-02-14T06:44:51.899Z,4.94
2023-02-14T06:47:18.614Z,5.08
2023-02-14T06:49:52.697Z,4.99
2023-02-14T06:52:22.089Z,5.18
2023-02-14T06:54:49.801Z,4.98
2023-02-14T07:00:18.303Z,4.88
2023-02-14T07:02:45.130Z,5.04
2023-02-14T07:05:20.096Z,5.09
2023-02-14T07:07:54.517Z,5.26
2023-02-14T07:10:21.145Z,5.26
2023-02-14T07:12:54.243Z,5.40
2023-02-14T07:15:32.909Z,5.46
2023-02-14T07:17:59.700Z,5.51
2023-02-14T07:20:29.571Z,5.53
2023-02-14T07:23:08.100Z,5.59
2023-02-14T07:25:41.266Z,5.64
2023-02-14T07:28:07.945Z,5.74
2023-02-14T07:30:34.662Z,4.74
2023-02-14T07:33:01.386Z,5.87
2023-02-14T07:35:30.155Z,5.79
2023-02-14T07:37:56.715Z,5.76
2023-02-14T07:40:26.809Z,6.13
2023-02-14T07:42:55.153Z,6.24
2023-02-14T07:45:22.504Z,6.28
2023-02-14T07:47:51.246Z,6.45
2023-02-14T07:53:10.959Z,6.77
2023-02-14T07:55:43.657Z,6.72
2023-02-14T07:58:10.357Z,6.83
2023-02-14T08:00:40.087Z,7.13
2023-02-14T08:03:08.900Z,7.28
2023-02-14T08:05:42.161Z,7.36
2023-02-14T08:08:09.204Z,7.13
2023-02-14T08:10:37.902Z,7.42
2023-02-14T08:13:06.128Z,7.64
2023-02-14T08:18:44.153Z,7.56
2023-02-14T08:21:15.912Z,7.33
2023-02-14T08:23:47.578Z,7.79
2023-02-14T08:26:14.824Z,7.92
2023-02-14T08:28:42.774Z,8.01
2023-02-14T08:31:19.026Z,8.03
2023-02-14T08:33:53.282Z,7.99
2023-02-14T08:36:22.625Z,7.90
2023-02-14T08:38:52.511Z,8.18
2023-02-14T08:41:25.192Z,8.23
2023-02-14T08:43:52.256Z,8.28
2023-02-14T08:46:24.899Z,8.22
2023-02-14T08:49:02.938Z,8.37
2023-02-14T08:51:39.387Z,8.23
2023-02-14T08:54:08.790Z,8.37
2023-02-14T08:56:43.291Z,7.95
2023-02-14T08:59:10.842Z,8.52
2023-02-14T09:01:37.652Z,8.51
2023-02-14T09:04:07.416Z,8.60
2023-02-14T09:06:41.266Z,8.74
2023-02-14T09:09:10.712Z,8.83
2023-02-14T09:11:46.597Z,8.65
2023-02-14T09:14:27.106Z,8.35
2023-02-14T09:16:53.931Z,8.83
2023-02-14T09:19:28.956Z,9.06
2023-02-14T09:21:59.934Z,9.10
2023-02-14T09:24:36.315Z,8.96
2023-02-14T09:27:04.363Z,8.96
2023-02-14T09:29:34.112Z,9.30
2023-02-14T09:32:16.158Z,9.29
2023-02-14T09:35:11.243Z,9.48
2023-02-14T09:37:56.441Z,9.37
2023-02-14T09:40:26.254Z,9.66
2023-02-14T09:43:09.929Z,9.52
2023-02-14T09:45:38.234Z,9.82
2023-02-14T09:48:43.913Z,9.58
2023-02-14T09:51:18.491Z,10.10
2023-02-14T09:54:12.551Z,9.81
2023-02-14T09:57:11.684Z,10.31
2023-02-14T09:59:51.944Z,10.02
2023-02-14T10:02:52.068Z,10.60
2023-02-14T10:05:49.853Z,10.71
2023-02-14T10:08:56.117Z,10.88
2023-02-14T10:11:27.033Z,10.90
2023-02-14T10:13:59.704Z,10.99
2023-02-14T10:16:37.064Z,11.26
2023-02-14T10:19:40.707Z,11.42
2023-02-14T10:22:23.851Z,11.58
2023-02-14T10:25:01.985Z,11.61
2023-02-14T10:27:48.932Z,11.15
2023-02-14T10:30:21.306Z,11.69
2023-02-14T10:32:59.082Z,12.01
2023-02-14T10:35:46.503Z,12.17
2023-02-14T10:38:25.175Z,12.07
2023-02-14T10:41:16.431Z,12.47
2023-02-14T10:44:18.364Z,12.26
2023-02-14T10:47:33.529Z,12.75
2023-02-14T10:50:20.459Z,12.92
2023-02-14T10:53:08.664Z,13.02
2023-02-14T10:56:00.587Z,12.91
2023-02-14T10:58:31.744Z,13.16
2023-02-14T11:01:07.846Z,13.10
2023-02-14T11:04:06.902Z,12.97
2023-02-14T11:06:39.830Z,12.82
2023-02-14T11:09:12.345Z,13.64
2023-02-14T11:11:55.600Z,13.25
2023-02-14T11:14:43.428Z,13.61
2023-02-14T11:17:31.847Z,13.59
2023-02-14T11:20:12.994Z,13.60
2023-02-14T11:22:39.829Z,13.65
2023-02-14T11:25:34.556Z,13.16
2023-02-14T11:28:08.773Z,13.18
2023-02-14T11:30:41.417Z,13.61
2023-02-14T11:33:23.634Z,13.60
2023-02-14T11:35:58.168Z,13.54
2023-02-14T11:38:38.922Z,13.52
2023-02-14T11:41:15.973Z,12.94
2023-02-14T11:43:49.374Z,13.33
2023-02-14T11:46:22.993Z,13.16
2023-02-14T11:49:26.727Z,13.02
2023-02-14T11:51:53.455Z,13.08
2023-02-14T11:54:38.100Z,13.32
2023-02-14T11:57:14.924Z,12.95
2023-02-14T11:59:46.436Z,13.07
2023-02-14T12:02:28.027Z,13.29
2023-02-14T12:05:07.259Z,12.58
2023-02-14T12:07:37.991Z,13.23
2023-02-14T12:10:18.181Z,13.31
2023-02-14T12:13:14.718Z,13.30
2023-02-14T12:15:54.581Z,13.23
2023-02-14T12:18:47.327Z,13.09
2023-02-14T12:21:30.820Z,13.14
2023-02-14T12:24:20.406Z,13.14
2023-02-14T12:26:57.999Z,13.14
2023-02-14T12:29:46.696Z,12.87
2023-02-14T12:32:39.890Z,13.07
2023-02-14T12:35:22.192Z,13.38
2023-02-14T12:38:41.901Z,12.43
2023-02-14T12:41:39.879Z,13.24
2023-02-14T12:44:26.565Z,13.11
2023-02-14T12:47:10.269Z,12.89
2023-02-14T12:50:02.400Z,12.60
2023-02-14T12:52:41.287Z,12.88
2023-02-14T12:55:19.109Z,13.31
2023-02-14T12:58:31.420Z,13.48
2023-02-14T13:01:07.035Z,13.36
2023-02-14T13:04:25.688Z,13.43
2023-02-14T13:07:29.237Z,13.46
2023-02-14T13:13:56.973Z,13.55
2023-02-14T13:16:56.165Z,13.67
2023-02-14T13:20:01.970Z,13.68
2023-02-14T13:22:45.826Z,13.66
2023-02-14T13:25:37.237Z,13.64
2023-02-14T13:28:16.979Z,13.78
2023-02-14T13:30:46.557Z,13.70
2023-02-14T13:33:43.009Z,13.63
2023-02-14T13:36:20.210Z,13.80
2023-02-14T13:38:57.607Z,13.68
2023-02-14T13:41:26.335Z,13.72
2023-02-14T13:44:02.629Z,13.70
2023-02-14T13:46:51.661Z,13.73
2023-02-14T13:49:39.573Z,13.40
2023-02-14T13:52:38.636Z,13.68
2023-02-14T13:55:10.136Z,13.46
2023-02-14T13:57:47.743Z,13.52
2023-02-14T14:00:17.785Z,13.65
2023-02-14T14:02:58.488Z,13.61
2023-02-14T14:05:32.695Z,13.74
2023-02-14T14:08:20.471Z,13.74
2023-02-14T14:11:07.819Z,13.27
2023-02-14T14:14:10.017Z,13.67
2023-02-14T14:16:40.609Z,13.34
2023-02-14T14:19:26.856Z,13.34
2023-02-14T14:22:01.665Z,13.39
2023-02-14T14:24:33.791Z,13.49
2023-02-14T14:27:23.276Z,13.12
2023-02-14T14:30:09.413Z,13.29
2023-02-14T14:32:45.947Z,13.26
2023-02-14T14:35:18.295Z,13.31
2023-02-14T14:37:57.184Z,13.47
2023-02-14T14:40:51.072Z,13.49
2023-02-14T14:43:34.077Z,13.35
2023-02-14T14:46:06.103Z,12.94
2023-02-14T14:48:38.357Z,12.79
2023-02-14T14:51:18.115Z,13.04
2023-02-14T14:54:16.071Z,12.08
2023-02-14T14:57:03.904Z,13.10
2023-02-14T14:59:40.639Z,13.13
2023-02-14T15:02:27.226Z,13.22
2023-02-14T15:04:54.094Z,13.23
2023-02-14T15:07:32.907Z,12.97
2023-02-14T15:10:02.679Z,12.99
2023-02-14T15:12:59.023Z,13.22
2023-02-14T15:15:31.961Z,13.11
2023-02-14T15:17:59.445Z,13.36
2023-02-14T15:20:29.272Z,13.13
2023-02-14T15:22:55.863Z,13.37
2023-02-14T15:25:24.718Z,13.41
2023-02-14T15:27:51.848Z,13.50
2023-02-14T15:30:26.105Z,12.63
2023-02-14T15:33:06.330Z,13.46
2023-02-14T15:35:37.672Z,13.53
2023-02-14T15:38:07.037Z,13.31
2023-02-14T15:40:35.671Z,13.25
2023-02-14T15:43:25.242Z,13.04
2023-02-14T15:46:04.878Z,13.13
2023-02-14T15:48:35.206Z,12.94
2023-02-14T15:51:08.239Z,12.87
2023-02-14T15:53:44.638Z,12.91
2023-02-14T15:56:39.122Z,12.69
2023-02-14T15:59:37.377Z,12.79
2023-02-14T16:02:21.159Z,12.31
2023-02-14T16:05:02.327Z,12.15
2023-02-14T16:07:30.044Z,12.52
2023-02-14T16:10:33.782Z,12.62
2023-02-14T16:13:07.300Z,12.52
2023-02-14T16:15:45.410Z,12.10
2023-02-14T16:18:45.620Z,12.48
2023-02-14T16:21:36.530Z,12.44
2023-02-14T16:24:13.055Z,12.12
2023-02-14T16:26:50.495Z,12.17
2023-02-14T16:29:22.758Z,12.18
2023-02-14T16:34:38.482Z,12.29
2023-02-14T16:37:22.583Z,11.94
2023-02-14T16:39:56.027Z,11.86
2023-02-14T16:42:24.045Z,12.17
2023-02-14T16:44:51.204Z,12.09
2023-02-14T16:47:20.017Z,11.47
2023-02-14T16:49:50.772Z,11.96
2023-02-14T16:52:26.054Z,11.52
2023-02-14T16:54:53.640Z,11.25
2023-02-14T16:57:29.019Z,11.96
2023-02-14T17:00:00.205Z,11.63
2023-02-14T17:02:28.496Z,11.02
2023-02-14T17:04:59.051Z,11.78
2023-02-14T17:07:33.329Z,11.81
2023-02-14T17:10:09.991Z,11.73
2023-02-14T17:12:42.722Z,11.46
2023-02-14T17:15:14.767Z,11.70
2023-02-14T17:17:41.273Z,11.66
2023-02-14T17:20:14.013Z,11.67
2023-02-14T17:22:47.610Z,11.44
2023-02-14T17:25:14.429Z,11.64
2023-02-14T17:27:44.092Z,11.60
2023-02-14T17:30:15.065Z,11.45
2023-02-14T17:32:45.631Z,11.40
2023-02-14T17:35:14.564Z,11.51
2023-02-14T17:37:42.925Z,11.44
2023-02-14T17:40:13.692Z,11.42
2023-02-14T17:42:41.203Z,11.45
2023-02-14T17:45:11.709Z,11.56
2023-02-14T17:47:41.603Z,11.55
2023-02-14T17:50:08.558Z,11.41
2023-02-14T17:52:41.978Z,11.43
2023-02-14T17:55:26.253Z,11.08
2023-02-14T17:57:53.437Z,11.32
2023-02-14T18:00:28.869Z,11.48
2023-02-14T18:05:41.001Z,11.15
2023-02-14T18:08:15.426Z,11.12
2023-02-14T18:10:41.932Z,9.83
2023-02-14T18:13:08.795Z,11.19
2023-02-14T18:15:36.732Z,11.10
2023-02-14T18:18:03.575Z,10.83
2023-02-14T18:20:30.216Z,11.00
2023-02-14T18:23:07.248Z,10.82
2023-02-14T18:25:34.562Z,10.77
2023-02-14T18:28:11.403Z,10.87
2023-02-14T18:30:43.140Z,10.82
2023-02-14T18:33:09.719Z,10.72
2023-02-14T18:35:36.406Z,10.52
2023-02-14T18:38:07.779Z,9.88
2023-02-14T18:40:34.871Z,10.54
2023-02-14T18:43:07.931Z,10.68
2023-02-14T18:45:38.800Z,10.67
2023-02-14T18:48:06.498Z,10.63
2023-02-14T18:50:34.099Z,10.61
2023-02-14T18:53:05.746Z,10.51
2023-02-14T18:55:32.584Z,10.38
2023-02-14T18:58:07.774Z,10.44
2023-02-14T19:00:46.184Z,9.72
2023-02-14T19:03:19.073Z,10.28
2023-02-14T19:05:49.791Z,10.11
2023-02-14T19:08:16.470Z,10.27
2023-02-14T19:10:45.818Z,10.26
2023-02-14T19:13:19.502Z,10.01
2023-02-14T19:15:47.780Z,10.16
2023-02-14T19:18:14.429Z,9.84
2023-02-14T19:20:53.373Z,10.06
2023-02-14T19:23:32.335Z,9.97
2023-02-14T19:26:08.366Z,9.98
2023-02-14T19:28:46.424Z,9.18
2023-02-14T19:31:45.689Z,8.87
2023-02-14T19:34:42.438Z,9.08
2023-02-14T19:40:20.369Z,9.66
2023-02-14T19:42:48.767Z,9.76
2023-02-14T19:45:20.541Z,9.73
2023-02-14T19:47:59.534Z,9.49
2023-02-14T19:50:32.864Z,9.62
2023-02-14T19:53:01.153Z,9.64
2023-02-14T19:55:33.889Z,9.71
2023-02-14T19:58:00.458Z,9.72
2023-02-14T20:00:27.122Z,9.45
2023-02-14T20:02:56.046Z,9.58
2023-02-14T20:05:27.267Z,9.31
2023-02-14T20:07:54.779Z,9.45
2023-02-14T20:10:31.040Z,9.11
2023-02-14T20:13:12.260Z,9.31
2023-02-14T20:15:44.120Z,9.00
2023-02-14T20:18:15.815Z,8.79
2023-02-14T20:21:03.395Z,9.24
2023-02-14T20:23:39.442Z,9.26
2023-02-14T20:26:12.464Z,8.67
2023-02-14T20:28:50.302Z,9.24
2023-02-14T20:31:21.372Z,9.05
2023-02-14T20:33:52.909Z,9.36
2023-02-14T20:36:35.825Z,9.52
2023-02-14T20:39:13.133Z,8.90
2023-02-14T20:41:41.495Z,9.05
2023-02-14T20:44:18.816Z,8.87
2023-02-14T20:47:08.267Z,9.50
2023-02-14T20:49:45.576Z,9.03
2023-02-14T20:53:24.782Z,8.72
2023-02-14T20:55:18.995Z,7.72
2023-02-14T20:58:20.691Z,9.01
2023-02-14T21:01:19.555Z,9.02
2023-02-14T21:03:56.497Z,8.93
2023-02-14T21:06:40.313Z,7.77
2023-02-14T21:09:17.830Z,8.27
2023-02-14T21:12:00.980Z,8.77
2023-02-14T21:14:37.162Z,8.91
2023-02-14T21:17:05.651Z,8.65
2023-02-14T21:19:52.205Z,7.83
2023-02-14T21:22:19.051Z,8.15
2023-02-14T21:24:48.099Z,8.68
2023-02-14T21:27:15.608Z,7.93
2023-02-14T21:29:53.783Z,8.00
2023-02-14T21:32:26.617Z,8.66
2023-02-14T21:35:01.482Z,8.49
2023-02-14T21:37:37.759Z,8.08
2023-02-14T21:40:10.917Z,7.92
2023-02-14T21:42:52.051Z,7.57
2023-02-14T21:45:56.005Z,8.26
2023-02-14T21:48:44.822Z,7.80
2023-02-14T21:51:11.970Z,8.12
2023-02-14T21:53:39.342Z,8.20
2023-02-14T21:56:22.832Z,8.26
2023-02-14T21:58:52.469Z,7.23
2023-02-14T22:01:24.729Z,7.81
2023-02-14T22:03:57.011Z,7.79
2023-02-14T22:06:35.477Z,8.12
2023-02-14T22:09:22.462Z,7.96
2023-02-14T22:11:56.479Z,8.19
2023-02-14T22:14:30.272Z,8.32
2023-02-14T22:16:57.186Z,7.98
2023-02-14T22:19:30.147Z,7.68
2023-02-14T22:22:02.610Z,8.34
2023-02-14T22:24:31.876Z,8.13
2023-02-14T22:26:58.492Z,8.14
2023-02-14T22:29:29.051Z,8.07
2023-02-14T22:31:57.315Z,7.46
2023-02-14T22:34:24.062Z,8.10
2023-02-14T22:37:08.517Z,7.88
2023-02-14T22:39:35.170Z,7.78
2023-02-14T22:42:08.227Z,7.96
2023-02-14T22:44:50.636Z,8.04
2023-02-14T22:47:20.353Z,7.77
2023-02-14T22:49:46.907Z,7.96
2023-02-14T22:52:22.360Z,7.93
2023-02-14T22:54:56.481Z,7.41
2023-02-14T22:57:26.247Z,7.62
2023-02-14T22:59:52.811Z,7.51
2023-02-14T23:02:19.765Z,7.28
2023-02-14T23:04:57.266Z,7.89
2023-02-14T23:07:28.436Z,7.82
2023-02-14T23:10:01.242Z,7.86
2023-02-14T23:12:47.817Z,7.43
2023-02-14T23:18:36.162Z,7.75
2023-02-14T23:21:30.788Z,7.77
2023-02-14T23:23:57.386Z,7.93
2023-02-14T23:26:24.080Z,7.77
2023-02-14T23:28:50.604Z,7.74
2023-02-14T23:31:23.077Z,7.73
2023-02-14T23:33:55.482Z,7.20
2023-02-14T23:36:24.250Z,7.72
2023-02-14T23:38:53.521Z,7.65
2023-02-14T23:41:38.689Z,7.79
2023-02-14T23:44:08.355Z,7.74
2023-02-14T23:46:35.024Z,7.61
2023-02-14T23:49:01.709Z,7.30
2023-02-14T23:51:29.020Z,7.22
2023-02-14T23:54:54.907Z,7.52
2023-02-14T23:56:57.563Z,7.47
2023-02-14T23:59:26.992Z,7.23
